createdAt,value
2023-01-20T00:03:26.543Z,6.1
2023-01-20T00:08:49.384Z,6.1
2023-01-20T00:14:12.019Z,6
2023-01-20T00:19:18.695Z,6
2023-01-20T00:24:25.723Z,5.9
2023-01-20T00:29:17.658Z,5.9
2023-01-20T00:34:24.219Z,5.9
2023-01-20T00:39:15.478Z,5.9
2023-01-20T00:44:07.119Z,5.9
2023-01-20T00:49:15.459Z,5.9
2023-01-20T00:54:05.966Z,5.9
2023-01-20T01:03:34.321Z,5.9
2023-01-20T01:08:26.458Z,5.9
2023-01-20T01:13:48.259Z,5.9
2023-01-20T01:18:55.368Z,5.9
2023-01-20T01:23:47.123Z,5.9
2023-01-20T01:33:44.864Z,5.9
2023-01-20T01:39:15.666Z,5.9
2023-01-20T01:44:38.688Z,6
2023-01-20T01:49:46.384Z,6
2023-01-20T01:54:53.563Z,6
2023-01-20T02:00:01.352Z,6
2023-01-20T02:05:10.622Z,6
2023-01-20T02:10:32.750Z,6.1
2023-01-20T02:15:39.740Z,6.1
2023-01-20T02:20:47.745Z,6.1
2023-01-20T02:26:10.692Z,6.1
2023-01-20T02:31:33.715Z,6.1
2023-01-20T02:36:55.813Z,6.1
2023-01-20T02:42:20.425Z,6.2
2023-01-20T02:47:28.085Z,6.2
2023-01-20T02:58:03.356Z,6.3
2023-01-20T03:07:32.186Z,6.3
2023-01-20T03:12:54.236Z,6.3
2023-01-20T03:18:16.588Z,6.3
2023-01-20T03:23:39.256Z,6.3
2023-01-20T03:28:45.811Z,6.3
2023-01-20T03:33:22.301Z,6.3
2023-01-20T03:37:58.381Z,6.3
2023-01-20T03:43:05.853Z,6.3
2023-01-20T03:48:28.492Z,6.3
2023-01-20T03:54:14.317Z,6.3
2023-01-20T03:59:37.090Z,6.3
2023-01-20T04:05:16.292Z,6.3
2023-01-20T04:10:42.577Z,6.3
2023-01-20T04:15:49.178Z,6.3
2023-01-20T04:20:40.638Z,6.2
2023-01-20T04:26:02.817Z,6.2
2023-01-20T04:31:41.389Z,6.2
2023-01-20T04:37:03.595Z,6.2
2023-01-20T04:42:09.847Z,6.2
2023-01-20T04:47:17.511Z,6.2
2023-01-20T04:52:39.912Z,6.1
2023-01-20T04:57:34.745Z,6.1
2023-01-20T05:02:58.240Z,6.1
2023-01-20T05:08:05.196Z,6.1
2023-01-20T05:13:27.840Z,6.1
2023-01-20T05:18:35.736Z,6.1
2023-01-20T05:23:58.183Z,6.1
2023-01-20T05:29:05.213Z,6.1
2023-01-20T05:34:13.597Z,6.1
2023-01-20T05:39:07.732Z,6.1
2023-01-20T05:43:43.762Z,6.1
2023-01-20T05:49:05.608Z,6.1
2023-01-20T05:54:12.695Z,6.1
2023-01-20T06:04:26.454Z,6.1
2023-01-20T06:09:34.521Z,6
2023-01-20T06:14:41.367Z,6
2023-01-20T06:20:06.330Z,6
2023-01-20T06:25:14.480Z,6
2023-01-20T06:29:52.318Z,6
2023-01-20T06:34:59.659Z,6
2023-01-20T06:40:06.963Z,5.9
2023-01-20T06:45:29.685Z,6
2023-01-20T06:50:52.303Z,6
2023-01-20T06:56:14.990Z,6
2023-01-20T07:01:38.474Z,6
2023-01-20T07:06:47.061Z,6.1
2023-01-20T07:12:09.881Z,6.1
2023-01-20T07:17:33.035Z,6.1
2023-01-20T07:22:55.148Z,6.2
2023-01-20T07:28:02.510Z,6.3
2023-01-20T07:33:25.388Z,6.4
2023-01-20T07:38:33.923Z,6.5
2023-01-20T07:43:58.474Z,6.6
2023-01-20T07:49:20.744Z,6.7
2023-01-20T07:54:28.331Z,6.8
2023-01-20T07:59:51.039Z,6.8
2023-01-20T08:04:59.254Z,6.8
2023-01-20T08:10:26.170Z,6.9
2023-01-20T08:15:34.140Z,6.9
2023-01-20T08:20:10.770Z,6.9
2023-01-20T08:25:34.090Z,7
2023-01-20T08:30:58.602Z,7.1
2023-01-20T08:36:22.285Z,7.1
2023-01-20T08:41:45.790Z,7.3
2023-01-20T08:47:09.012Z,7.5
2023-01-20T08:52:00.836Z,7.8
2023-01-20T08:57:08.696Z,8.1
2023-01-20T09:02:16.581Z,8.6
2023-01-20T09:07:33.296Z,9.4
2023-01-20T09:12:41.071Z,10.2
2023-01-20T09:17:48.384Z,11
2023-01-20T09:23:11.580Z,11.8
2023-01-20T09:28:48.782Z,12.3
2023-01-20T09:33:56.202Z,12.5
2023-01-20T09:39:22.107Z,12.7
2023-01-20T09:44:30.339Z,13.3
2023-01-20T09:49:53.067Z,13.9
2023-01-20T09:55:15.884Z,14.2
2023-01-20T10:00:24.269Z,14.3
2023-01-20T10:05:17.387Z,14.2
2023-01-20T10:10:51.776Z,13.9
2023-01-20T10:16:14.789Z,13.9
2023-01-20T10:21:39.010Z,16.3
2023-01-20T10:27:05.527Z,27.6
2023-01-20T10:32:13.563Z,30.7
2023-01-20T10:37:36.612Z,38.4
2023-01-20T10:42:46.400Z,34.4
2023-01-20T10:48:09.404Z,32.3
2023-01-20T10:53:32.200Z,30.9
2023-01-20T10:58:55.346Z,29.6
2023-01-20T11:04:30.806Z,28.6
2023-01-20T11:09:39.134Z,27.5
2023-01-20T11:14:47.013Z,26.4
2023-01-20T11:20:10.162Z,25.3
2023-01-20T11:25:33.217Z,24.1
2023-01-20T11:30:57.005Z,22.9
2023-01-20T11:35:51.579Z,21.9
2023-01-20T11:40:58.644Z,20.8
2023-01-20T11:46:32.968Z,19.6
2023-01-20T11:51:58.868Z,18.5
2023-01-20T11:57:06.054Z,17.6
2023-01-20T12:02:28.617Z,16.8
2023-01-20T12:12:43.075Z,15.2
2023-01-20T12:17:50.569Z,14.4
2023-01-20T12:23:31.228Z,13.6
2023-01-20T12:28:58.984Z,12.8
2023-01-20T12:34:23.129Z,12.1
2023-01-20T12:39:30.715Z,11.4
2023-01-20T12:44:40.447Z,10.8
2023-01-20T12:50:03.339Z,10.3
2023-01-20T12:55:42.404Z,9.6
2023-01-20T13:01:05.291Z,9.1
2023-01-20T13:06:28.305Z,8.7
2023-01-20T13:11:51.263Z,8.3
2023-01-20T13:17:08.019Z,7.9
2023-01-20T13:22:45.654Z,7.6
2023-01-20T13:28:08.809Z,7.3
2023-01-20T13:33:32.615Z,7
2023-01-20T13:38:55.846Z,6.8
2023-01-20T13:44:18.743Z,6.6
2023-01-20T13:49:41.967Z,6.4
2023-01-20T13:54:51.072Z,6.3
2023-01-20T14:00:13.867Z,6.1
2023-01-20T14:05:38.438Z,6.2
2023-01-20T14:11:01.302Z,6.4
2023-01-20T14:21:31.788Z,6.8
2023-01-20T14:26:57.639Z,7.8
2023-01-20T14:32:23.854Z,9.3
2023-01-20T14:37:46.214Z,10.3
2023-01-20T14:43:20.177Z,10.9
2023-01-20T14:48:51.404Z,11
2023-01-20T14:54:14.282Z,10.8
2023-01-20T14:59:36.728Z,10.4
2023-01-20T15:05:13.002Z,10
2023-01-20T15:10:51.809Z,9.5
2023-01-20T15:16:14.934Z,9.1
2023-01-20T15:21:53.480Z,8.6
2023-01-20T15:27:15.981Z,8.2
2023-01-20T15:32:24.839Z,7.8
2023-01-20T15:37:47.634Z,7.4
2023-01-20T15:43:11.136Z,7.1
2023-01-20T15:48:33.596Z,6.8
2023-01-20T15:53:56.783Z,6.4
2023-01-20T15:59:19.579Z,6.2
2023-01-20T16:04:42.497Z,5.9
2023-01-20T16:09:50.724Z,5.6
2023-01-20T16:15:13.420Z,5.4
2023-01-20T16:20:04.987Z,5.2
2023-01-20T16:25:28.199Z,4.9
2023-01-20T16:30:50.981Z,4.8
2023-01-20T16:36:17.607Z,4.6
2023-01-20T16:41:40.372Z,4.4
2023-01-20T16:47:03.353Z,4.2
2023-01-20T16:52:26.102Z,4.1
2023-01-20T16:57:50.175Z,3.9
2023-01-20T17:03:13.881Z,3.8
2023-01-20T17:08:37.082Z,3.6
2023-01-20T17:14:00.509Z,3.4
2023-01-20T17:19:08.157Z,3.4
2023-01-20T17:24:16.324Z,3.3
2023-01-20T17:29:39.284Z,3.1
2023-01-20T17:35:02.483Z,2.9
2023-01-20T17:40:25.814Z,2.8
2023-01-20T17:45:50.351Z,2.7
2023-01-20T17:50:59.554Z,2.6
2023-01-20T17:56:14.086Z,2.4
2023-01-20T18:01:37.913Z,2.3
2023-01-20T18:06:46.072Z,2.2
2023-01-20T18:17:19.333Z,1.9
2023-01-20T18:27:39.749Z,1.7
2023-01-20T18:33:05.154Z,1.6
2023-01-20T18:38:30.326Z,1.5
2023-01-20T18:43:59.081Z,1.4
2023-01-20T18:49:28.223Z,1.3
2023-01-20T18:54:55.093Z,1.1
2023-01-20T19:00:22.847Z,1.1
2023-01-20T19:05:51.511Z,0.9
2023-01-20T19:11:18.349Z,0.9
2023-01-20T19:16:30.299Z,0.8
2023-01-20T19:21:59.102Z,0.8
2023-01-20T19:27:14.760Z,0.7
2023-01-20T19:32:46.515Z,0.6
2023-01-20T19:38:04.217Z,0.6
2023-01-20T19:43:39.126Z,0.5
2023-01-20T19:49:20.844Z,0.5
2023-01-20T19:54:54.588Z,0.5
2023-01-20T20:00:14.953Z,0.4
2023-01-20T20:05:17.788Z,0.4
2023-01-20T20:10:55.512Z,0.4
2023-01-20T20:16:29.482Z,0.4
2023-01-20T20:22:00.109Z,0.4
2023-01-20T20:27:26.904Z,0.4
2023-01-20T20:32:54.126Z,0.4
2023-01-20T20:38:04.862Z,0.4
2023-01-20T20:43:15.047Z,0.4
2023-01-20T20:48:39.840Z,0.5
2023-01-20T20:53:48.863Z,0.5
2023-01-20T20:59:18.937Z,0.4
2023-01-20T21:04:57.968Z,0.5
2023-01-20T21:10:06.040Z,0.5
2023-01-20T21:15:14.920Z,0.5
2023-01-20T21:20:09.096Z,0.5
2023-01-20T21:25:32.626Z,0.5
2023-01-20T21:30:40.419Z,0.6
2023-01-20T21:36:04.070Z,0.6
2023-01-20T21:41:29.559Z,0.6
2023-01-20T21:46:55.550Z,0.6
2023-01-20T21:52:18.940Z,0.6
2023-01-20T21:57:26.222Z,0.6
2023-01-20T22:02:49.495Z,0.6
2023-01-20T22:07:56.761Z,0.6
2023-01-20T22:13:19.256Z,0.7
2023-01-20T22:18:42.592Z,0.7
2023-01-20T22:29:13.202Z,0.8
2023-01-20T22:34:36.280Z,0.8
2023-01-20T22:39:58.872Z,0.8
2023-01-20T22:45:07.310Z,0.8
2023-01-20T22:50:30.367Z,0.9
2023-01-20T22:55:41.576Z,0.9
2023-01-20T23:01:09.301Z,0.9
2023-01-20T23:06:35.430Z,0.9
2023-01-20T23:11:42.825Z,0.9
2023-01-20T23:17:06.445Z,0.9
2023-01-20T23:22:28.983Z,0.9
2023-01-20T23:27:35.865Z,1
2023-01-20T23:32:58.758Z,1
2023-01-20T23:38:21.210Z,1
2023-01-20T23:43:46.246Z,1
2023-01-20T23:49:08.499Z,1
2023-01-20T23:54:16.195Z,1
2023-01-20T23:59:38.432Z,1
